Time;durP1;ratioP1;P1;durP2;ratioP2;P2;SDS_P1;SDS_P2;PMS_P1;PMS_P2;Temp;Humidity;BMP_temperature;BMP_pressure;BME280_temperature;BME280_humidity;BME280_pressure;Samples;Min_cycle;Max_cycle;Signal;HPM_P1;HPM_P2
2023/12/16 00:01:11;;;;;;;8.00;4.00;;;;;;;-0.10;89.38;98329.31;108064;1276;22530;-81
2023/12/16 00:03:43;;;;;;;10.40;5.50;;;;;;;-0.07;89.35;98333.66;108042;1279;22543;-81
2023/12/16 00:06:13;;;;;;;13.40;7.90;;;;;;;-0.05;89.19;98338.48;107926;1279;24428;-81
2023/12/16 00:08:44;;;;;;;10.10;5.30;;;;;;;-0.06;89.37;98346.60;107976;1281;22493;-81
2023/12/16 00:11:13;;;;;;;11.80;6.40;;;;;;;-0.06;89.21;98355.59;108001;1281;25249;-80
2023/12/16 00:13:41;;;;;;;10.30;5.10;;;;;;;-0.08;89.03;98352.02;107946;1281;22675;-80
2023/12/16 00:16:12;;;;;;;13.10;7.20;;;;;;;-0.07;89.11;98358.89;107914;1282;22554;-80
2023/12/16 00:18:43;;;;;;;14.90;6.80;;;;;;;-0.09;89.18;98357.63;107970;1274;22553;-80
2023/12/16 00:21:11;;;;;;;13.70;5.50;;;;;;;-0.10;89.39;98365.13;107932;1281;24256;-80
2023/12/16 00:23:39;;;;;;;11.40;6.60;;;;;;;-0.12;89.16;98366.89;107986;1278;24436;-80
2023/12/16 00:26:10;;;;;;;11.20;4.70;;;;;;;-0.12;89.57;98363.25;107957;1281;25429;-80
2023/12/16 00:28:39;;;;;;;11.80;6.00;;;;;;;-0.12;89.52;98363.64;107954;1280;22615;-80
2023/12/16 00:31:08;;;;;;;11.90;5.90;;;;;;;-0.13;89.61;98368.06;107987;1281;22536;-80
2023/12/16 00:33:37;;;;;;;13.70;7.50;;;;;;;-0.14;89.84;98371.91;107982;1281;22527;-80
2023/12/16 00:36:09;;;;;;;11.50;6.40;;;;;;;-0.15;89.81;98377.73;107946;1281;24292;-80
2023/12/16 00:38:38;;;;;;;12.30;6.40;;;;;;;-0.16;89.89;98372.65;108033;1275;22592;-80
2023/12/16 00:41:07;;;;;;;8.20;4.80;;;;;;;-0.17;89.82;98373.64;107986;1281;22671;-80
2023/12/16 00:43:36;;;;;;;12.10;6.70;;;;;;;-0.14;89.78;98376.83;107985;1275;22568;-80
2023/12/16 00:46:04;;;;;;;10.80;5.30;;;;;;;-0.12;89.93;98388.40;107977;1281;24227;-80
2023/12/16 00:48:34;;;;;;;10.80;5.30;;;;;;;-0.11;90.04;98391.39;108016;1281;21747;-80
2023/12/16 00:51:02;;;;;;;;;;;;;;;-0.07;89.39;98397.37;108021;1281;22530;-80
2023/12/16 00:53:30;;;;;;;11.40;6.10;;;;;;;-0.01;89.72;98404.23;108033;1276;22538;-80
2023/12/16 00:55:58;;;;;;;10.10;5.50;;;;;;;-0.02;89.45;98390.80;107959;1281;22548;-81
2023/12/16 00:58:26;;;;;;;9.60;5.50;;;;;;;-0.06;89.70;98378.46;108007;1281;22668;-80
2023/12/16 01:00:54;;;;;;;12.90;7.90;;;;;;;-0.08;89.69;98365.93;107973;1281;22553;-81
2023/12/16 01:03:23;;;;;;;13.80;8.40;;;;;;;-0.11;89.53;98352.20;108003;1281;23004;-80
2023/12/16 01:05:51;;;;;;;14.80;8.10;;;;;;;-0.14;89.54;98358.91;107966;1281;22554;-80
2023/12/16 01:08:19;;;;;;;14.60;7.90;;;;;;;-0.17;89.82;98365.13;107963;1276;25859;-81
2023/12/16 01:10:47;;;;;;;13.70;8.20;;;;;;;-0.19;90.09;98369.96;107989;1281;22659;-81
2023/12/16 01:13:16;;;;;;;7.70;4.80;;;;;;;-0.21;89.67;98366.77;107989;1281;22854;-81
2023/12/16 01:15:49;;;;;;;9.10;3.90;;;;;;;-0.17;89.77;98361.80;107960;1281;22545;-80
2023/12/16 01:18:17;;;;;;;18.60;10.00;;;;;;;-0.17;89.75;98358.41;107986;1281;24386;-81
2023/12/16 01:20:45;;;;;;;11.00;6.40;;;;;;;-0.24;89.71;98348.19;107958;1275;22567;-80
2023/12/16 01:23:14;;;;;;;15.70;8.20;;;;;;;-0.30;89.87;98348.48;107959;1276;25191;-81
2023/12/16 01:25:45;;;;;;;13.40;6.40;;;;;;;-0.34;89.86;98357.25;107943;1281;22543;-81
2023/12/16 01:28:13;;;;;;;17.90;10.60;;;;;;;-0.37;90.13;98359.02;107936;1281;22565;-81
2023/12/16 01:30:41;;;;;;;17.00;9.80;;;;;;;-0.38;90.16;98349.27;107986;1280;22646;-81
2023/12/16 01:33:12;;;;;;;17.00;10.00;;;;;;;-0.40;90.26;98344.73;107960;1281;22536;-81
2023/12/16 01:35:44;;;;;;;16.70;7.70;;;;;;;-0.43;89.84;98337.73;107953;1279;25520;-81
2023/12/16 01:38:12;;;;;;;21.30;12.40;;;;;;;-0.47;90.25;98344.77;107970;1281;22520;-81
2023/12/16 01:40:40;;;;;;;14.70;7.20;;;;;;;-0.49;90.32;98348.34;107948;1281;22718;-81
2023/12/16 01:43:10;;;;;;;17.80;9.00;;;;;;;-0.50;90.11;98352.08;107927;1281;25718;-81
2023/12/16 01:45:41;;;;;;;16.70;10.70;;;;;;;-0.50;90.45;98360.45;108110;1281;27492;-81
2023/12/16 01:48:11;;;;;;;9.60;7.00;;;;;;;-0.47;90.77;98360.79;107936;1277;22593;-81
2023/12/16 01:50:43;;;;;;;16.20;10.10;;;;;;;-0.43;90.74;98358.45;107947;1275;22716;-81
2023/12/16 01:53:11;;;;;;;16.70;7.50;;;;;;;-0.40;90.70;98349.10;107947;1281;24255;-81
2023/12/16 01:55:39;;;;;;;18.60;10.40;;;;;;;-0.38;90.74;98350.23;107893;1281;22537;-81
2023/12/16 01:58:09;;;;;;;;;;;;;;;-0.35;90.93;98350.90;107979;1281;22501;-81
2023/12/16 02:00:38;;;;;;;11.60;6.50;;;;;;;-0.27;90.85;98353.02;107928;1273;22647;-81
2023/12/16 02:03:06;;;;;;;4.60;3.20;;;;;;;-0.13;90.90;98357.58;107929;1281;22537;-80
2023/12/16 02:05:38;;;;;;;7.60;3.50;;;;;;;0.03;90.70;98354.78;107924;1281;23449;-81
2023/12/16 02:08:07;;;;;;;8.00;4.40;;;;;;;0.17;90.01;98356.23;107963;1281;22546;-81
2023/12/16 02:10:36;;;;;;;6.70;3.30;;;;;;;0.26;88.95;98356.22;107937;1281;22553;-81
2023/12/16 02:13:05;;;;;;;7.80;3.20;;;;;;;0.36;87.46;98356.54;107963;1274;22520;-81
2023/12/16 02:15:33;;;;;;;11.60;4.80;;;;;;;0.45;86.49;98354.68;107946;1281;23975;-80
2023/12/16 02:18:01;;;;;;;8.70;4.20;;;;;;;0.48;86.39;98355.64;107943;1277;22583;-81
2023/12/16 02:20:30;;;;;;;10.10;5.20;;;;;;;0.48;86.42;98363.37;107991;1276;25269;-81
2023/12/16 02:23:01;;;;;;;8.70;4.70;;;;;;;0.45;86.03;98362.16;107973;1275;22608;-80
2023/12/16 02:25:29;;;;;;;8.20;4.30;;;;;;;0.43;86.22;98359.95;107968;1281;22555;-80
2023/12/16 02:27:57;;;;;;;9.10;4.00;;;;;;;0.42;86.34;98354.48;107970;1281;24228;-81
2023/12/16 02:30:26;;;;;;;8.50;5.40;;;;;;;0.45;85.82;98357.65;107954;1279;25356;-80
2023/12/16 02:32:56;;;;;;;8.40;4.50;;;;;;;0.44;85.77;98364.42;107938;1280;22651;-82
2023/12/16 02:35:27;;;;;;;7.30;3.90;;;;;;;0.40;85.53;98366.00;107925;1275;23035;-81
2023/12/16 02:37:55;;;;;;;8.60;4.70;;;;;;;0.38;85.84;98356.82;107962;1276;22538;-81
2023/12/16 02:40:24;;;;;;;4.70;3.20;;;;;;;0.41;85.84;98361.40;107958;1275;25361;-81
2023/12/16 02:42:54;;;;;;;6.80;4.20;;;;;;;0.44;85.60;98359.77;107972;1281;24233;-81
2023/12/16 02:45:22;;;;;;;5.40;3.40;;;;;;;0.50;85.66;98353.73;107976;1281;25259;-81
2023/12/16 02:47:50;;;;;;;6.80;3.50;;;;;;;0.58;85.09;98359.66;107967;1281;22534;-81
2023/12/16 02:50:19;;;;;;;6.30;3.20;;;;;;;0.65;85.11;98361.09;107947;1280;22582;-81
2023/12/16 02:52:49;;;;;;;8.90;4.20;;;;;;;0.67;85.21;98367.30;107950;1274;22640;-81
2023/12/16 02:55:18;;;;;;;7.30;3.90;;;;;;;0.68;84.67;98366.64;107955;1276;25048;-80
2023/12/16 02:57:48;;;;;;;6.30;3.20;;;;;;;0.71;84.25;98368.10;107981;1279;22545;-81
2023/12/16 03:00:16;;;;;;;4.50;3.10;;;;;;;0.71;84.07;98369.63;107941;1276;22540;-81
2023/12/16 03:02:44;;;;;;;7.40;4.50;;;;;;;0.71;84.15;98365.14;108016;1280;24363;-81
2023/12/16 03:05:13;;;;;;;6.10;3.20;;;;;;;0.66;83.71;98364.31;107945;1281;25408;-81
2023/12/16 03:07:42;;;;;;;6.70;4.40;;;;;;;0.66;83.85;98363.14;107957;1279;22558;-81
2023/12/16 03:10:11;;;;;;;8.60;4.80;;;;;;;0.68;84.02;98363.39;107893;1281;143418;-81
2023/12/16 03:12:40;;;;;;;4.90;3.20;;;;;;;0.73;83.88;98358.31;107926;1275;24217;-81
2023/12/16 03:15:10;;;;;;;7.30;2.90;;;;;;;0.72;83.96;98359.81;107949;1274;25324;-81
2023/12/16 03:17:39;;;;;;;6.30;3.70;;;;;;;0.71;83.92;98357.16;107943;1279;22558;-81
2023/12/16 03:20:12;;;;;;;7.30;4.00;;;;;;;0.72;84.12;98360.91;107968;1280;22537;-81
2023/12/16 03:22:43;;;;;;;9.00;3.80;;;;;;;0.73;84.40;98360.80;107966;1281;22539;-81
2023/12/16 03:25:18;;;;;;;8.60;3.50;;;;;;;0.74;84.20;98366.69;107983;1274;25257;-81
2023/12/16 03:27:49;;;;;;;7.80;3.70;;;;;;;0.77;84.06;98358.94;107959;1281;25416;-82
2023/12/16 03:30:18;;;;;;;8.00;3.40;;;;;;;0.81;84.12;98372.31;107958;1281;22593;-82
2023/12/16 03:32:46;;;;;;;6.10;3.80;;;;;;;0.83;84.54;98378.40;107973;1275;22549;-82
2023/12/16 03:35:15;;;;;;;9.50;4.70;;;;;;;0.82;84.25;98385.00;107916;1275;22578;-81
2023/12/16 03:37:43;;;;;;;8.40;3.30;;;;;;;0.81;83.94;98387.45;107940;1281;22542;-82
2023/12/16 03:40:12;;;;;;;6.60;3.20;;;;;;;0.80;84.16;98387.82;108007;1281;25177;-82
2023/12/16 03:42:43;;;;;;;9.00;5.20;;;;;;;0.78;84.43;98390.92;107992;1281;22662;-82
2023/12/16 03:45:11;;;;;;;5.80;3.80;;;;;;;0.81;84.66;98396.72;107974;1281;22537;-82
2023/12/16 03:47:40;;;;;;;7.90;3.50;;;;;;;0.83;85.11;98407.73;108018;1274;22519;-82
2023/12/16 03:50:13;;;;;;;8.00;3.50;;;;;;;0.85;85.08;98404.77;108027;1281;24281;-82
2023/12/16 03:52:42;;;;;;;6.40;3.30;;;;;;;0.84;85.01;98412.23;107951;1281;22536;-82
2023/12/16 03:55:12;;;;;;;6.80;3.60;;;;;;;0.82;85.28;98421.80;107960;1281;22588;-82
2023/12/16 03:57:41;;;;;;;4.10;3.30;;;;;;;0.81;85.27;98424.55;107981;1281;25428;-82
2023/12/16 04:00:13;;;;;;;5.20;3.10;;;;;;;0.81;85.45;98413.11;108039;1274;22964;-82
2023/12/16 04:02:41;;;;;;;7.00;3.60;;;;;;;0.81;85.70;98412.71;107982;1281;22537;-81
2023/12/16 04:05:12;;;;;;;7.80;2.80;;;;;;;0.85;86.19;98425.70;108005;1281;23027;-81
2023/12/16 04:07:42;;;;;;;7.00;3.20;;;;;;;0.93;86.46;98427.11;107973;1277;25350;-81
2023/12/16 04:10:10;;;;;;;;;;;;;;;0.91;86.56;98432.34;107994;1271;23246;-81
2023/12/16 04:12:41;;;;;;;4.90;2.80;;;;;;;0.90;86.65;98440.09;107986;1281;25455;-81
2023/12/16 04:15:14;;;;;;;5.30;3.30;;;;;;;0.90;86.76;98443.02;107958;1279;22661;-81
2023/12/16 04:17:42;;;;;;;5.10;3.70;;;;;;;0.89;86.76;98444.53;108103;1281;22533;-81
2023/12/16 04:20:12;;;;;;;8.80;3.60;;;;;;;0.89;86.99;98441.73;107985;1281;22539;-81
2023/12/16 04:22:40;;;;;;;9.00;5.00;;;;;;;0.88;87.01;98434.67;107980;1281;22540;-81
2023/12/16 04:25:13;;;;;;;3.70;2.40;;;;;;;0.89;87.43;98419.14;107924;1281;22550;-80
2023/12/16 04:27:41;;;;;;;5.30;3.90;;;;;;;1.05;88.10;98419.47;107984;1281;22540;-81
2023/12/16 04:30:11;;;;;;;7.40;4.30;;;;;;;1.05;88.21;98414.25;107985;1274;22539;-81
2023/12/16 04:32:39;;;;;;;5.90;3.40;;;;;;;1.01;88.07;98407.15;108006;1281;25389;-82
2023/12/16 04:35:08;;;;;;;6.60;2.70;;;;;;;1.05;88.61;98407.77;107961;1277;22536;-80
2023/12/16 04:37:40;;;;;;;8.30;3.80;;;;;;;1.08;88.56;98408.30;107989;1281;22551;-81
2023/12/16 04:40:15;;;;;;;6.00;3.30;;;;;;;1.04;88.71;98409.77;107983;1281;22546;-81
2023/12/16 04:42:47;;;;;;;4.60;3.20;;;;;;;1.07;88.86;98403.32;108040;1275;24246;-81
2023/12/16 04:45:18;;;;;;;5.60;3.30;;;;;;;1.10;89.01;98391.38;108020;1281;25416;-81
2023/12/16 04:47:46;;;;;;;5.60;3.00;;;;;;;1.09;89.34;98393.15;108052;1273;22647;-81
2023/12/16 04:50:15;;;;;;;7.50;4.90;;;;;;;1.11;90.03;98403.34;107920;1274;25204;-81
2023/12/16 04:52:44;;;;;;;10.10;3.90;;;;;;;1.11;90.31;98405.51;107993;1281;22551;-81
2023/12/16 04:55:12;;;;;;;7.10;3.80;;;;;;;1.09;90.26;98411.14;108031;1277;22558;-80
2023/12/16 04:57:41;;;;;;;8.20;4.30;;;;;;;1.05;89.98;98410.16;108035;1274;23469;-81
2023/12/16 05:00:13;;;;;;;6.60;4.30;;;;;;;1.01;90.24;98412.55;108004;1274;22853;-81
2023/12/16 05:02:41;;;;;;;6.00;3.80;;;;;;;0.96;90.12;98406.69;108123;1281;22587;-81
2023/12/16 05:05:10;;;;;;;7.60;4.30;;;;;;;0.92;90.24;98419.55;107980;1281;24264;-81
2023/12/16 05:07:40;;;;;;;9.40;4.00;;;;;;;0.90;90.78;98420.48;108034;1281;26211;-81
2023/12/16 05:10:11;;;;;;;6.10;3.40;;;;;;;0.89;91.14;98418.09;107994;1274;23046;-81
2023/12/16 05:12:41;;;;;;;11.30;3.40;;;;;;;0.87;91.39;98427.38;108030;1274;24321;-81
2023/12/16 05:15:12;;;;;;;9.50;4.10;;;;;;;0.86;92.08;98425.56;108017;1281;24156;-80
2023/12/16 05:17:40;;;;;;;8.50;3.40;;;;;;;0.85;92.39;98440.77;107999;1274;22547;-81
2023/12/16 05:20:10;;;;;;;9.10;5.20;;;;;;;0.84;92.51;98437.65;107999;1275;22869;-80
2023/12/16 05:22:38;;;;;;;6.50;3.70;;;;;;;0.84;92.71;98441.15;108062;1270;22682;-81
2023/12/16 05:25:09;;;;;;;6.10;3.40;;;;;;;0.83;92.90;98438.64;107953;1274;23830;-80
2023/12/16 05:27:37;;;;;;;9.10;3.70;;;;;;;0.85;93.22;98437.13;108013;1281;22537;-80
2023/12/16 05:30:06;;;;;;;9.20;3.90;;;;;;;0.88;93.43;98444.31;107970;1281;25365;-80
2023/12/16 05:32:35;;;;;;;8.10;4.30;;;;;;;0.89;93.92;98451.39;107997;1281;22543;-81
2023/12/16 05:35:04;;;;;;;7.40;3.30;;;;;;;0.92;94.45;98460.96;107973;1281;22541;-80
2023/12/16 05:37:33;;;;;;;6.50;3.10;;;;;;;0.96;94.74;98475.98;108013;1281;22547;-81
2023/12/16 05:40:01;;;;;;;5.00;3.20;;;;;;;0.95;94.30;98476.28;107967;1281;24234;-81
2023/12/16 05:42:29;;;;;;;6.00;3.60;;;;;;;0.94;94.59;98475.80;107992;1279;22631;-81
2023/12/16 05:44:58;;;;;;;6.90;3.50;;;;;;;0.98;94.78;98476.98;107975;1281;22541;-81
2023/12/16 05:47:26;;;;;;;7.10;3.00;;;;;;;1.01;94.94;98485.37;107994;1273;22610;-81
2023/12/16 05:49:55;;;;;;;6.00;4.10;;;;;;;1.03;95.06;98495.54;107960;1281;22546;-81
2023/12/16 05:52:23;;;;;;;7.20;3.30;;;;;;;1.05;95.15;98501.48;107961;1275;25329;-81
2023/12/16 05:54:52;;;;;;;8.10;4.60;;;;;;;1.05;95.27;98505.02;107980;1280;22553;-81
2023/12/16 05:57:20;;;;;;;9.30;5.60;;;;;;;1.05;95.30;98513.58;107924;1281;24284;-81
2023/12/16 05:59:48;;;;;;;8.20;4.20;;;;;;;1.04;95.15;98519.50;107931;1281;22573;-81
2023/12/16 06:02:17;;;;;;;9.80;5.50;;;;;;;1.03;95.15;98525.12;107969;1275;24256;-81
2023/12/16 06:04:45;;;;;;;9.10;5.60;;;;;;;1.03;95.13;98514.59;107916;1274;25260;-81
2023/12/16 06:07:16;;;;;;;8.10;4.80;;;;;;;1.03;94.99;98510.16;107930;1281;22602;-81
2023/12/16 06:09:45;;;;;;;9.20;5.40;;;;;;;1.03;95.07;98518.33;107962;1281;25050;-81
2023/12/16 06:12:19;;;;;;;9.80;5.50;;;;;;;1.02;94.88;98524.90;107949;1281;22540;-81
2023/12/16 06:14:47;;;;;;;9.30;5.10;;;;;;;1.01;95.16;98529.18;107959;1281;22683;-81
2023/12/16 06:17:19;;;;;;;9.60;4.60;;;;;;;1.01;95.24;98534.30;107979;1281;25699;-81
2023/12/16 06:19:47;;;;;;;9.60;4.70;;;;;;;1.04;95.58;98535.01;107963;1275;22559;-81
2023/12/16 06:22:17;;;;;;;6.90;3.50;;;;;;;1.06;95.70;98547.59;107931;1275;22600;-81
2023/12/16 06:24:46;;;;;;;5.70;3.20;;;;;;;1.08;95.62;98547.05;107905;1281;24341;-81
2023/12/16 06:27:14;;;;;;;10.10;6.70;;;;;;;1.09;95.97;98540.81;107900;1279;22545;-81
2023/12/16 06:29:45;;;;;;;10.50;4.10;;;;;;;1.09;95.97;98540.13;107955;1274;25418;-81
2023/12/16 06:32:13;;;;;;;9.70;6.50;;;;;;;1.09;96.06;98532.10;108002;1275;22545;-81
2023/12/16 06:34:42;;;;;;;8.30;4.50;;;;;;;1.08;96.02;98531.87;107933;1281;23380;-81
2023/12/16 06:37:11;;;;;;;8.60;5.10;;;;;;;1.07;95.96;98539.88;107912;1281;22783;-81
2023/12/16 06:39:41;;;;;;;9.20;4.90;;;;;;;1.07;96.14;98551.38;107934;1281;23895;-81
2023/12/16 06:42:12;;;;;;;7.40;4.60;;;;;;;1.06;95.96;98552.81;107948;1275;22551;-81
2023/12/16 06:44:42;;;;;;;11.00;5.80;;;;;;;1.08;96.30;98558.84;107972;1281;22536;-81
2023/12/16 06:47:11;;;;;;;7.90;4.90;;;;;;;1.07;96.34;98556.86;107922;1275;27119;-81
2023/12/16 06:49:39;;;;;;;7.00;4.00;;;;;;;1.09;96.56;98559.98;107924;1274;22583;-81
2023/12/16 06:52:08;;;;;;;10.40;5.40;;;;;;;1.11;96.65;98560.08;108000;1281;25375;-81
2023/12/16 06:54:37;;;;;;;10.70;5.60;;;;;;;1.14;96.83;98551.78;107963;1274;24272;-81
2023/12/16 06:57:05;;;;;;;;;;;;;;;1.16;96.81;98546.15;107945;1275;22525;-81
2023/12/16 06:59:34;;;;;;;11.70;6.00;;;;;;;1.19;96.91;98544.42;107956;1274;22549;-81
2023/12/16 07:02:03;;;;;;;10.70;6.40;;;;;;;1.19;96.71;98545.96;107976;1279;22557;-81
2023/12/16 07:04:32;;;;;;;6.80;4.10;;;;;;;1.18;96.75;98541.53;107914;1279;22549;-81
2023/12/16 07:07:01;;;;;;;10.00;4.60;;;;;;;1.17;97.07;98543.04;107915;1277;25003;-81
2023/12/16 07:09:29;;;;;;;11.50;6.70;;;;;;;1.16;97.28;98545.47;107955;1281;22530;-81
2023/12/16 07:11:58;;;;;;;10.20;5.70;;;;;;;1.15;97.02;98541.76;107938;1281;22533;-81
2023/12/16 07:14:28;;;;;;;13.60;6.80;;;;;;;1.14;97.17;98545.35;107984;1281;22684;-81
2023/12/16 07:16:57;;;;;;;39.70;22.10;;;;;;;1.11;97.33;98548.45;108006;1281;22533;-81
2023/12/16 07:19:27;;;;;;;13.70;8.20;;;;;;;1.06;97.55;98556.80;107968;1264;24265;-81
2023/12/16 07:21:56;;;;;;;11.60;5.30;;;;;;;1.05;97.69;98557.78;107982;1281;23396;-81
2023/12/16 07:24:25;;;;;;;9.00;4.20;;;;;;;1.04;98.10;98551.13;108014;1281;25372;-81
2023/12/16 07:26:54;;;;;;;11.00;5.60;;;;;;;1.03;98.44;98562.83;107977;1281;24395;-81
2023/12/16 07:29:23;;;;;;;14.20;9.60;;;;;;;0.99;98.50;98561.46;107947;1277;22674;-80
2023/12/16 07:31:52;;;;;;;15.30;9.80;;;;;;;0.94;98.81;98561.52;108002;1280;22547;-80
2023/12/16 07:34:21;;;;;;;18.20;8.10;;;;;;;0.91;98.78;98563.06;107935;1281;22560;-80
2023/12/16 07:36:50;;;;;;;10.50;6.80;;;;;;;0.88;98.86;98563.17;107958;1281;22540;-80
2023/12/16 07:39:19;;;;;;;12.00;6.60;;;;;;;0.83;98.61;98566.54;107952;1281;22540;-80
2023/12/16 07:41:48;;;;;;;12.00;6.70;;;;;;;0.80;98.99;98565.52;107961;1281;24254;-80
2023/12/16 07:44:19;;;;;;;13.50;8.10;;;;;;;0.74;99.05;98569.64;107969;1279;22540;-80
2023/12/16 07:46:50;;;;;;;11.20;7.30;;;;;;;0.70;99.11;98567.29;107937;1281;32779;-80
2023/12/16 07:49:22;;;;;;;11.80;6.80;;;;;;;0.67;99.34;98569.48;107999;1281;25682;-80
2023/12/16 07:51:50;;;;;;;13.70;8.50;;;;;;;0.68;99.34;98573.82;107971;1281;26453;-79
2023/12/16 07:54:19;;;;;;;13.20;7.70;;;;;;;0.71;99.81;98573.27;107944;1281;22556;-80
2023/12/16 07:56:50;;;;;;;13.40;8.90;;;;;;;0.74;99.83;98573.63;107924;1281;22540;-79
2023/12/16 07:59:18;;;;;;;14.60;8.20;;;;;;;0.75;99.93;98574.23;107940;1275;22748;-79
2023/12/16 08:01:52;;;;;;;14.70;8.10;;;;;;;0.77;99.93;98572.44;107968;1274;24992;-80
2023/12/16 08:04:20;;;;;;;14.70;8.90;;;;;;;0.77;100.00;98570.64;107983;1281;22566;-79
2023/12/16 08:06:49;;;;;;;13.20;8.50;;;;;;;0.79;100.00;98577.45;107943;1279;22532;-79
2023/12/16 08:09:19;;;;;;;10.70;6.20;;;;;;;0.81;100.00;98578.63;107945;1276;23090;-80
2023/12/16 08:11:47;;;;;;;13.60;8.60;;;;;;;0.82;100.00;98582.14;107965;1281;22538;-80
2023/12/16 08:14:18;;;;;;;12.20;6.90;;;;;;;0.82;100.00;98582.70;107954;1274;22541;-80
2023/12/16 08:16:46;;;;;;;12.90;6.70;;;;;;;0.85;100.00;98578.49;107991;1281;22554;-80
2023/12/16 08:19:15;;;;;;;14.80;8.20;;;;;;;0.88;100.00;98582.20;107960;1259;22528;-80
2023/12/16 08:21:44;;;;;;;20.00;11.00;;;;;;;0.90;100.00;98583.00;107915;1279;24289;-80
2023/12/16 08:24:14;;;;;;;11.30;7.20;;;;;;;0.94;100.00;98586.86;107996;1281;24908;-80
2023/12/16 08:26:42;;;;;;;12.00;7.40;;;;;;;0.98;100.00;98585.29;107979;1281;22540;-80
2023/12/16 08:29:13;;;;;;;15.10;7.50;;;;;;;1.01;100.00;98587.19;107971;1279;22544;-80
2023/12/16 08:31:44;;;;;;;9.20;6.00;;;;;;;1.06;100.00;98586.64;107965;1281;22591;-80
2023/12/16 08:34:13;;;;;;;11.10;5.60;;;;;;;1.11;100.00;98589.48;107959;1281;22575;-80
2023/12/16 08:36:43;;;;;;;9.60;6.10;;;;;;;1.12;100.00;98593.63;107884;1274;31055;-80
2023/12/16 08:39:11;;;;;;;12.30;7.80;;;;;;;1.10;100.00;98596.41;107997;1281;25256;-80
2023/12/16 08:41:41;;;;;;;10.60;6.30;;;;;;;1.09;100.00;98600.01;107949;1281;22563;-80
2023/12/16 08:44:10;;;;;;;13.30;7.00;;;;;;;1.09;100.00;98593.77;107894;1281;26761;-80
2023/12/16 08:46:42;;;;;;;11.70;7.00;;;;;;;1.08;100.00;98594.42;107920;1281;22533;-80
2023/12/16 08:49:11;;;;;;;14.20;8.90;;;;;;;1.09;100.00;98594.45;107987;1274;22610;-80
2023/12/16 08:51:41;;;;;;;9.90;5.50;;;;;;;1.12;100.00;98592.67;107946;1281;22552;-80
2023/12/16 08:54:10;;;;;;;12.00;6.90;;;;;;;1.19;100.00;98591.29;107958;1281;24261;-80
2023/12/16 08:56:38;;;;;;;11.50;7.70;;;;;;;1.23;100.00;98596.42;107937;1281;25430;-80
2023/12/16 08:59:06;;;;;;;11.50;7.20;;;;;;;1.25;100.00;98592.59;107930;1281;22534;-80
2023/12/16 09:01:36;;;;;;;10.10;4.70;;;;;;;1.26;100.00;98595.44;107983;1274;22543;-80
2023/12/16 09:04:05;;;;;;;14.30;6.60;;;;;;;1.25;100.00;98595.83;107997;1279;22762;-80
2023/12/16 09:06:37;;;;;;;13.30;7.50;;;;;;;1.25;100.00;98596.26;107975;1281;22499;-79
2023/12/16 09:09:06;;;;;;;14.00;8.10;;;;;;;1.25;100.00;98594.89;108102;1274;25269;-80
2023/12/16 09:11:34;;;;;;;12.30;8.40;;;;;;;1.27;100.00;98597.88;107949;1275;25100;-80
2023/12/16 09:14:06;;;;;;;6.90;3.80;;;;;;;1.29;100.00;98594.19;107960;1281;22665;-80
2023/12/16 09:16:37;;;;;;;9.00;4.60;;;;;;;1.35;100.00;98584.30;107964;1281;22536;-79
2023/12/16 09:19:08;;;;;;;12.40;8.30;;;;;;;1.39;100.00;98585.02;108009;1281;22562;-80
2023/12/16 09:21:42;;;;;;;12.60;7.00;;;;;;;1.43;100.00;98586.00;107959;1281;24417;-80
2023/12/16 09:24:11;;;;;;;14.20;9.40;;;;;;;1.44;100.00;98592.62;107982;1271;22537;-80
2023/12/16 09:26:40;;;;;;;15.20;9.50;;;;;;;1.45;100.00;98595.04;107991;1281;23811;-81
2023/12/16 09:29:09;;;;;;;12.00;6.60;;;;;;;1.45;100.00;98597.13;107999;1281;22661;-80
2023/12/16 09:31:39;;;;;;;14.80;9.30;;;;;;;1.44;100.00;98605.95;107976;1281;22587;-80
2023/12/16 09:34:08;;;;;;;13.60;8.60;;;;;;;1.46;100.00;98602.92;108017;1280;22582;-80
2023/12/16 09:36:36;;;;;;;14.80;9.80;;;;;;;1.47;100.00;98600.38;107947;1274;25312;-79
2023/12/16 09:39:06;;;;;;;14.80;10.10;;;;;;;1.49;100.00;98596.48;107969;1281;22556;-79
2023/12/16 09:41:41;;;;;;;16.00;10.40;;;;;;;1.51;100.00;98600.61;107928;1281;22570;-79
2023/12/16 09:44:16;;;;;;;14.20;8.80;;;;;;;1.50;100.00;98603.98;107910;1275;25059;-79
2023/12/16 09:46:46;;;;;;;14.40;9.20;;;;;;;1.52;100.00;98605.08;107969;1281;22539;-79
2023/12/16 09:49:16;;;;;;;15.40;10.20;;;;;;;1.52;100.00;98617.42;107993;1281;23008;-80
2023/12/16 09:51:44;;;;;;;14.30;9.10;;;;;;;1.55;100.00;98618.95;108012;1281;22544;-80
2023/12/16 09:54:16;;;;;;;16.10;9.70;;;;;;;1.58;100.00;98621.59;107939;1281;22650;-80
2023/12/16 09:56:46;;;;;;;11.20;7.90;;;;;;;1.61;100.00;98619.67;107982;1281;24406;-80
2023/12/16 09:59:16;;;;;;;13.60;7.50;;;;;;;1.63;100.00;98619.14;107998;1275;22536;-79
2023/12/16 10:01:52;;;;;;;13.10;7.20;;;;;;;1.65;100.00;98613.83;107946;1281;22535;-79
2023/12/16 10:04:22;;;;;;;15.10;8.30;;;;;;;1.68;100.00;98614.07;107984;1277;22597;-79
2023/12/16 10:06:50;;;;;;;11.80;8.30;;;;;;;1.70;100.00;98613.30;107908;1279;24223;-79
2023/12/16 10:09:21;;;;;;;13.70;8.90;;;;;;;1.72;100.00;98615.08;107982;1275;22545;-80
2023/12/16 10:11:54;;;;;;;15.00;8.30;;;;;;;1.75;100.00;98616.20;107908;1275;25010;-80
2023/12/16 10:14:22;;;;;;;13.40;9.00;;;;;;;1.77;100.00;98617.37;107927;1281;22540;-80
2023/12/16 10:17:00;;;;;;;16.10;10.00;;;;;;;1.78;100.00;98621.24;107892;1278;33817;-80
2023/12/16 10:19:29;;;;;;;15.50;9.50;;;;;;;1.75;100.00;98618.09;107901;1280;22546;-81
2023/12/16 10:21:57;;;;;;;17.60;11.20;;;;;;;1.76;100.00;98616.91;107933;1274;22618;-80
2023/12/16 10:24:26;;;;;;;16.80;9.10;;;;;;;1.78;100.00;98615.85;107983;1274;22534;-80
2023/12/16 10:26:54;;;;;;;16.50;9.90;;;;;;;1.83;100.00;98613.80;107963;1275;22614;-80
2023/12/16 10:29:23;;;;;;;19.70;10.40;;;;;;;1.85;100.00;98612.98;107949;1282;22525;-80
2023/12/16 10:31:52;;;;;;;13.10;8.00;;;;;;;1.88;100.00;98613.15;107926;1274;22524;-80
2023/12/16 10:34:20;;;;;;;15.80;5.00;;;;;;;1.92;100.00;98614.65;107942;1264;24212;-80
2023/12/16 10:36:51;;;;;;;14.90;9.10;;;;;;;1.93;100.00;98614.71;107946;1282;24867;-80
2023/12/16 10:39:20;;;;;;;18.40;8.80;;;;;;;1.95;100.00;98620.95;108070;1274;22557;-80
2023/12/16 10:41:48;;;;;;;13.00;7.90;;;;;;;1.99;100.00;98616.48;108065;1274;22074;-81
2023/12/16 10:44:17;;;;;;;15.90;9.50;;;;;;;2.03;100.00;98613.77;108057;1281;22548;-80
2023/12/16 10:46:49;;;;;;;15.30;8.10;;;;;;;2.09;100.00;98618.23;108006;1279;25246;-80
2023/12/16 10:49:22;;;;;;;12.00;8.10;;;;;;;2.17;100.00;98609.84;107992;1281;22543;-80
2023/12/16 10:51:53;;;;;;;13.60;7.40;;;;;;;2.26;100.00;98603.71;107965;1281;22535;-80
2023/12/16 10:54:28;;;;;;;14.80;8.00;;;;;;;2.34;100.00;98604.85;107956;1274;22582;-79
2023/12/16 10:57:02;;;;;;;15.00;8.90;;;;;;;2.39;100.00;98604.89;107981;1281;22542;-79
2023/12/16 10:59:38;;;;;;;10.50;5.80;;;;;;;2.43;100.00;98609.52;107958;1279;22565;-80
2023/12/16 11:02:22;;;;;;;12.50;6.90;;;;;;;2.42;100.00;98610.20;107951;1280;22639;-79
2023/12/16 11:05:00;;;;;;;11.40;7.50;;;;;;;2.39;100.00;98603.96;107964;1281;22534;-79
2023/12/16 11:07:37;;;;;;;12.90;8.00;;;;;;;2.39;100.00;98604.52;108043;1281;22556;-80
2023/12/16 11:10:13;;;;;;;12.20;7.20;;;;;;;2.42;100.00;98605.42;108037;1267;24366;-79
2023/12/16 11:12:42;;;;;;;7.60;4.90;;;;;;;2.41;100.00;98606.98;107978;1281;22533;-80
2023/12/16 11:15:11;;;;;;;9.40;5.90;;;;;;;2.43;100.00;98599.88;107920;1274;26013;-78
2023/12/16 11:17:41;;;;;;;;;;;;;;;2.40;100.00;98594.64;107988;1281;26312;-80
2023/12/16 11:20:17;;;;;;;14.20;7.80;;;;;;;2.36;100.00;98593.19;107931;1274;22540;-79
2023/12/16 11:22:49;;;;;;;14.00;8.40;;;;;;;2.33;100.00;98591.59;108080;1277;22547;-79
2023/12/16 11:25:18;;;;;;;12.80;8.90;;;;;;;2.32;100.00;98588.88;108060;1281;25833;-79
2023/12/16 11:27:47;;;;;;;;;;;;;;;2.32;100.00;98587.86;108045;1281;22514;-80
2023/12/16 11:30:16;;;;;;;14.80;8.20;;;;;;;2.30;100.00;98571.20;107976;1281;22530;-80
2023/12/16 11:32:54;;;;;;;13.40;7.70;;;;;;;2.29;100.00;98566.92;108070;1259;23048;-79
2023/12/16 11:35:48;;;;;;;11.20;5.40;;;;;;;2.30;100.00;98567.27;107990;1281;22548;-80
2023/12/16 11:38:37;;;;;;;13.40;9.10;;;;;;;2.32;100.00;98564.80;108005;1281;22552;-79